createdAt,value
2019-05-28T04:27:23.738Z,22.94
2019-05-28T05:02:59.277Z,23.09
2019-05-28T05:16:09.190Z,23.09
2019-05-28T05:18:09.190Z,23.12
2019-05-28T05:31:09.057Z,23.22
2019-05-28T05:33:19.897Z,23.27
2019-05-28T05:34:30.678Z,23.26
2019-05-28T05:35:30.820Z,23.24
2019-05-28T05:36:30.651Z,23.20
2019-05-28T05:38:30.623Z,23.31
2019-05-28T05:41:30.593Z,23.29
2019-05-28T05:42:30.582Z,23.37
2019-05-28T05:44:30.559Z,23.38
2019-05-28T05:45:30.547Z,23.34
2019-05-28T05:46:30.548Z,23.44
2019-05-28T05:47:30.543Z,23.46
2019-05-28T05:48:30.539Z,23.39
2019-05-28T05:49:30.512Z,23.45
2019-05-28T05:50:30.493Z,23.41
2019-05-28T05:51:30.489Z,23.44
2019-05-28T05:52:30.478Z,23.46
2019-05-28T05:53:30.510Z,23.51
2019-05-28T05:54:30.448Z,23.59
2019-05-28T05:55:30.458Z,23.60
2019-05-28T05:56:30.430Z,23.60
2019-05-28T05:57:30.430Z,23.63
2019-05-28T05:58:30.409Z,23.57
2019-05-28T05:59:30.428Z,23.69
2019-05-28T06:00:30.383Z,23.74
2019-05-28T06:01:30.388Z,23.78
2019-05-28T06:02:30.363Z,23.71
2019-05-28T06:03:40.201Z,23.82
2019-05-28T06:04:52.627Z,23.82
2019-05-28T06:05:52.474Z,23.76
2019-05-28T06:06:52.491Z,23.79
2019-05-28T06:07:52.583Z,23.71
2019-05-28T06:08:53.494Z,23.71
2019-05-28T06:09:52.469Z,23.76
2019-05-28T06:10:52.475Z,23.76
2019-05-28T06:11:53.719Z,23.76
2019-05-28T06:12:52.466Z,23.75
2019-05-28T06:13:55.433Z,23.74
2019-05-28T06:14:52.670Z,23.79
2019-05-28T06:15:52.427Z,23.67
2019-05-28T06:16:52.437Z,23.78
2019-05-28T06:17:52.842Z,23.82
2019-05-28T06:18:52.323Z,23.78
2019-05-28T06:19:53.036Z,23.86
2019-05-28T06:21:10.614Z,23.79
2019-05-28T06:22:51.302Z,23.94
2019-05-28T06:23:51.293Z,23.88
2019-05-28T06:24:53.422Z,23.89
2019-05-28T06:25:51.263Z,23.97
2019-05-28T06:26:51.242Z,23.96
2019-05-28T06:27:51.236Z,23.93
2019-05-28T06:28:51.512Z,24.07
2019-05-28T06:29:51.242Z,23.99
2019-05-28T06:30:51.221Z,24.05
2019-05-28T06:31:52.217Z,23.96
2019-05-28T06:32:51.289Z,23.99
2019-05-28T06:33:56.947Z,24.08
2019-05-28T06:35:30.946Z,24.05
2019-05-28T06:36:30.910Z,24.01
2019-05-28T06:37:30.900Z,24.04
2019-05-28T06:38:33.255Z,24.07
2019-05-28T06:39:31.025Z,24.08
2019-05-28T06:40:30.895Z,24.07
2019-05-28T06:41:30.880Z,24.13
2019-05-28T06:42:34.311Z,24.13
2019-05-28T06:43:53.030Z,24.17
2019-05-28T06:44:52.644Z,24.19
2019-05-28T06:45:52.630Z,24.17
2019-05-28T06:46:52.606Z,24.19
2019-05-28T06:47:52.681Z,24.19
2019-05-28T06:48:52.594Z,24.22
2019-05-28T06:49:52.579Z,24.17
2019-05-28T06:50:52.574Z,24.19
2019-05-28T06:51:52.560Z,24.22
2019-05-28T06:52:52.543Z,24.24
2019-05-28T06:53:52.532Z,24.23
2019-05-28T06:54:52.575Z,24.23
2019-05-28T06:55:52.511Z,24.22
2019-05-28T06:56:52.496Z,24.31
2019-05-28T06:57:52.496Z,24.31
2019-05-28T06:58:52.499Z,24.29
2019-05-28T06:59:52.463Z,24.29
2019-05-28T07:00:52.585Z,24.38
2019-05-28T07:01:52.456Z,24.35
2019-05-28T07:02:52.445Z,24.39
2019-05-28T07:03:52.423Z,24.44
2019-05-28T07:04:52.415Z,24.41
2019-05-28T07:06:06.621Z,24.56
2019-05-28T07:07:15.864Z,24.59
2019-05-28T07:08:15.855Z,24.54
2019-05-28T07:09:15.834Z,24.54
2019-05-28T07:10:15.854Z,24.53
2019-05-28T07:11:15.824Z,24.63
2019-05-28T07:12:18.090Z,24.63
2019-05-28T07:13:15.804Z,24.68
2019-05-28T07:14:15.810Z,24.61
2019-05-28T07:15:15.782Z,24.59
2019-05-28T07:16:15.767Z,24.63
2019-05-28T07:17:15.756Z,24.63
2019-05-28T07:18:15.775Z,24.69
2019-05-28T07:19:24.629Z,24.72
2019-05-28T07:20:37.739Z,24.74
2019-05-28T07:21:37.729Z,24.74
2019-05-28T07:22:37.715Z,24.71
2019-05-28T07:23:37.721Z,24.74
2019-05-28T07:24:37.696Z,24.75
2019-05-28T07:25:37.702Z,24.71
2019-05-28T07:26:37.684Z,24.71
2019-05-28T07:27:37.673Z,24.75
2019-05-28T07:28:37.654Z,24.75
2019-05-28T07:29:37.638Z,24.75
2019-05-28T07:30:37.624Z,24.79
2019-05-28T07:31:37.640Z,24.89
2019-05-28T07:32:37.622Z,24.79
2019-05-28T07:33:37.631Z,24.86
2019-05-28T07:34:37.571Z,24.90
2019-05-28T07:35:45.832Z,24.91
2019-05-28T07:36:59.288Z,24.91
2019-05-28T07:38:02.258Z,24.99
2019-05-28T07:38:59.259Z,25.01
2019-05-28T07:39:59.242Z,25.05
2019-05-28T07:40:59.249Z,25.04
2019-05-28T07:42:03.445Z,25.06
2019-05-28T07:43:23.426Z,25.08
2019-05-28T07:44:24.441Z,25.05
2019-05-28T07:45:23.414Z,25.01
2019-05-28T07:46:23.420Z,25.14
2019-05-28T07:47:23.425Z,25.06
2019-05-28T07:48:23.385Z,25.08
2019-05-28T07:49:23.365Z,25.06
2019-05-28T07:50:23.344Z,25.15
2019-05-28T07:51:23.336Z,25.05
2019-05-28T07:52:24.332Z,25.08
2019-05-28T07:53:38.706Z,25.04
2019-05-28T07:54:45.453Z,25.06
2019-05-28T07:55:45.460Z,25.11
2019-05-28T07:56:45.406Z,25.06
2019-05-28T07:57:45.433Z,25.06
2019-05-28T07:58:45.411Z,25.06
2019-05-28T07:59:45.410Z,25.09
2019-05-28T08:00:45.391Z,25.05
2019-05-28T08:01:45.352Z,25.01
2019-05-28T08:02:45.352Z,25.01
2019-05-28T08:03:45.516Z,24.96
2019-05-28T08:04:47.555Z,25.06
2019-05-28T08:05:45.317Z,25.08
2019-05-28T08:06:54.818Z,25.12
2019-05-28T08:08:26.761Z,25.05
2019-05-28T08:09:26.818Z,25.12
2019-05-28T08:10:29.348Z,25.05
2019-05-28T08:11:26.820Z,25.16
2019-05-28T08:12:27.815Z,25.19
2019-05-28T08:13:39.489Z,25.21
2019-05-28T08:14:50.092Z,25.27
2019-05-28T08:15:48.775Z,25.27
2019-05-28T08:16:52.701Z,25.31
2019-05-28T08:17:48.773Z,25.30
2019-05-28T08:18:51.744Z,25.27
2019-05-28T08:19:56.518Z,25.41
2019-05-28T08:21:10.619Z,25.42
2019-05-28T08:22:13.671Z,25.36
2019-05-28T08:23:10.637Z,25.34
2019-05-28T08:24:10.600Z,25.41
2019-05-28T08:25:27.249Z,25.47
2019-05-28T08:26:32.895Z,25.49
2019-05-28T08:27:32.867Z,25.36
2019-05-28T08:28:32.876Z,25.47
2019-05-28T08:29:32.845Z,25.42
2019-05-28T08:30:32.868Z,25.37
2019-05-28T08:31:32.833Z,25.36
2019-05-28T08:32:32.819Z,25.33
2019-05-28T08:33:32.828Z,25.30
2019-05-28T08:34:32.812Z,25.23
2019-05-28T08:35:32.776Z,25.18
2019-05-28T08:36:32.777Z,25.19
2019-05-28T08:37:32.764Z,25.18
2019-05-28T08:38:32.734Z,25.16
2019-05-28T08:39:33.720Z,25.21
2019-05-28T08:40:32.746Z,25.19
2019-05-28T08:41:32.716Z,25.16
2019-05-28T08:42:32.720Z,25.18
2019-05-28T08:43:32.702Z,25.05
2019-05-28T08:44:33.994Z,25.05
2019-05-28T08:45:32.666Z,25.04
2019-05-28T08:46:32.651Z,25.09
2019-05-28T08:47:32.632Z,25.05
2019-05-28T08:48:32.656Z,25.06
2019-05-28T08:49:33.673Z,24.97
2019-05-28T08:50:35.031Z,25.06
2019-05-28T08:51:32.654Z,25.11
2019-05-28T08:52:32.706Z,25.04
2019-05-28T08:53:32.632Z,25.06
2019-05-28T08:54:33.830Z,25.16
2019-05-28T08:55:32.598Z,25.18
2019-05-28T08:56:32.626Z,25.26
2019-05-28T08:57:32.757Z,25.19
2019-05-28T08:58:32.610Z,25.19
2019-05-28T08:59:32.588Z,25.23
2019-05-28T09:00:32.566Z,25.24
2019-05-28T09:01:33.903Z,25.16
2019-05-28T09:02:32.623Z,25.11
2019-05-28T09:03:37.905Z,25.05
2019-05-28T09:04:32.499Z,25.08
2019-05-28T09:05:32.491Z,25.08
2019-05-28T09:06:32.485Z,25.09
2019-05-28T09:07:34.599Z,25.01
2019-05-28T09:08:39.066Z,24.97
2019-05-28T09:09:34.434Z,25.12
2019-05-28T09:10:32.460Z,25.00
2019-05-28T09:11:32.423Z,24.99
2019-05-28T09:12:32.407Z,24.94
2019-05-28T09:13:33.518Z,25.01
2019-05-28T09:14:54.259Z,24.99
2019-05-28T09:31:50.182Z,25.31
2019-05-28T09:32:53.106Z,25.30
2019-05-28T09:33:50.071Z,25.23
2019-05-28T09:34:50.060Z,25.15
2019-05-28T09:36:06.340Z,25.14
2019-05-28T09:37:17.132Z,25.06
2019-05-28T09:38:18.330Z,25.04
2019-05-28T09:39:17.127Z,25.08
2019-05-28T09:40:17.081Z,24.94
2019-05-28T09:41:17.084Z,24.94
2019-05-28T09:42:17.058Z,24.97
2019-05-28T09:43:18.055Z,25.00
2019-05-28T09:44:17.042Z,24.97
2019-05-28T09:45:23.006Z,24.96
2019-05-28T15:15:11.274Z,24.60
2019-05-28T15:16:11.271Z,24.61
2019-05-28T15:17:11.656Z,24.57
2019-05-28T15:18:11.166Z,24.56
2019-05-28T15:19:11.147Z,24.61
2019-05-28T15:20:11.285Z,24.60
2019-05-28T15:21:11.139Z,24.54
2019-05-28T15:22:15.217Z,24.53
2019-05-28T15:23:11.122Z,24.53
2019-05-28T15:24:11.099Z,24.50
2019-05-28T15:25:11.158Z,24.59
2019-05-28T15:26:11.067Z,24.39
2019-05-28T15:27:11.069Z,24.50
2019-05-28T15:28:11.065Z,24.54
2019-05-28T15:29:11.081Z,24.56
2019-05-28T15:30:11.080Z,24.56
2019-05-28T15:31:11.006Z,24.64
2019-05-28T15:32:11.038Z,24.52
2019-05-28T15:33:11.015Z,24.74
2019-05-28T15:34:10.984Z,24.63
2019-05-28T15:35:10.968Z,24.63
2019-05-28T15:36:10.953Z,24.63
2019-05-28T15:37:10.949Z,24.69
2019-05-28T15:38:10.971Z,24.64
2019-05-28T15:39:10.932Z,24.60
2019-05-28T15:40:10.997Z,24.61
2019-05-28T15:41:10.903Z,24.63
2019-05-28T15:42:19.932Z,24.64
2019-05-28T15:43:33.011Z,24.60
2019-05-28T15:44:32.999Z,24.54
2019-05-28T15:45:32.985Z,24.41
2019-05-28T15:46:32.999Z,24.38
2019-05-28T15:47:32.965Z,24.45
2019-05-28T15:48:32.953Z,24.37
2019-05-28T15:49:32.928Z,24.39
2019-05-28T15:50:32.930Z,24.26
2019-05-28T15:51:32.901Z,24.32
2019-05-28T15:52:32.896Z,24.29
2019-05-28T15:53:32.887Z,24.29
2019-05-28T15:54:32.873Z,24.31
2019-05-28T15:55:32.876Z,24.32
2019-05-28T15:56:32.859Z,24.24
2019-05-28T15:57:32.847Z,24.26
2019-05-28T15:58:32.841Z,24.29
2019-05-28T15:59:32.822Z,24.34
2019-05-28T16:00:32.813Z,24.29
2019-05-28T16:01:32.810Z,24.38
2019-05-28T16:02:32.796Z,24.41
2019-05-28T16:03:32.779Z,24.42
2019-05-28T16:04:32.761Z,24.44
2019-05-28T16:05:32.803Z,24.50
2019-05-28T16:06:32.747Z,24.60
2019-05-28T16:07:32.737Z,24.61
2019-05-28T16:08:32.712Z,24.69
2019-05-28T16:09:32.707Z,24.59
2019-05-28T16:10:32.745Z,24.63
2019-05-28T16:11:32.691Z,24.64
2019-05-28T16:12:32.678Z,24.64
2019-05-28T16:13:32.662Z,24.63
2019-05-28T16:14:32.664Z,24.68
2019-05-28T16:15:32.625Z,24.71
2019-05-28T16:16:32.622Z,24.72
2019-05-28T16:17:32.623Z,24.69
2019-05-28T16:18:32.618Z,24.69
2019-05-28T16:19:32.611Z,24.72
2019-05-28T16:20:32.596Z,24.71
2019-05-28T16:21:32.563Z,24.60
2019-05-28T16:22:32.567Z,24.64
2019-05-28T16:23:32.594Z,24.60
2019-05-28T16:24:32.535Z,24.60
2019-05-28T16:25:32.554Z,24.68
2019-05-28T16:26:32.586Z,24.68
2019-05-28T16:27:32.507Z,24.64
2019-05-28T16:28:32.511Z,24.63
2019-05-28T16:29:32.543Z,24.53
2019-05-28T16:30:32.461Z,24.59
2019-05-28T16:31:32.447Z,24.54
2019-05-28T16:32:32.443Z,24.59
2019-05-28T16:33:32.431Z,24.53
2019-05-28T16:34:32.420Z,24.38
2019-05-28T16:35:32.424Z,24.41
2019-05-28T16:36:32.449Z,24.41
2019-05-28T16:37:32.385Z,24.38
2019-05-28T16:38:32.381Z,24.41
2019-05-28T16:39:32.372Z,24.37
2019-05-28T16:40:32.354Z,24.31
2019-05-28T16:41:32.350Z,24.31
2019-05-28T16:42:32.346Z,24.32
2019-05-28T16:43:32.336Z,24.24
2019-05-28T16:44:32.327Z,24.20
2019-05-28T16:45:32.310Z,24.24
2019-05-28T16:46:32.285Z,24.23
2019-05-28T16:47:32.276Z,24.23
2019-05-28T16:48:32.276Z,24.23
2019-05-28T16:49:32.252Z,24.20
2019-05-28T16:50:32.254Z,24.24
2019-05-28T16:51:32.227Z,24.24
2019-05-28T16:52:32.244Z,24.16
2019-05-28T16:53:32.208Z,24.20
2019-05-28T16:54:32.200Z,24.20
2019-05-28T16:55:32.215Z,24.14
2019-05-28T16:56:32.283Z,24.23
2019-05-28T16:57:32.208Z,24.23
2019-05-28T16:58:32.162Z,24.26
2019-05-28T16:59:32.139Z,24.26
2019-05-28T17:00:32.143Z,24.26
2019-05-28T17:01:32.121Z,24.29
2019-05-28T17:02:32.129Z,24.26
2019-05-28T17:03:32.123Z,24.29
2019-05-28T17:04:32.093Z,24.24
2019-05-28T17:05:32.096Z,24.23
2019-05-28T17:06:32.068Z,24.23
2019-05-28T17:07:32.053Z,24.16
2019-05-28T17:08:32.058Z,24.22
2019-05-28T17:09:32.048Z,24.17
2019-05-28T17:10:33.701Z,24.16
2019-05-28T17:11:32.021Z,24.19
2019-05-28T17:12:32.018Z,24.16
2019-05-28T17:13:31.993Z,24.16
2019-05-28T17:14:31.978Z,24.22
2019-05-28T17:15:31.975Z,24.10
2019-05-28T17:16:31.971Z,24.10
2019-05-28T17:17:31.960Z,24.12
2019-05-28T17:18:31.950Z,24.08
2019-05-28T17:19:31.928Z,24.16
2019-05-28T17:20:31.940Z,24.14
2019-05-28T17:21:31.905Z,24.12
2019-05-28T17:22:31.911Z,24.10
2019-05-28T17:23:31.902Z,24.13
2019-05-28T17:24:31.894Z,24.12
2019-05-28T17:25:31.869Z,24.10
2019-05-28T17:26:31.875Z,24.16
2019-05-28T17:27:31.839Z,24.10
2019-05-28T17:28:31.844Z,24.12
2019-05-28T17:29:31.841Z,24.12
2019-05-28T17:30:31.816Z,24.24
2019-05-28T17:31:31.803Z,24.19
2019-05-28T17:32:31.785Z,24.16
2019-05-28T17:33:31.802Z,24.17
2019-05-28T17:34:31.856Z,24.17
2019-05-28T17:35:31.753Z,24.12
2019-05-28T17:36:31.753Z,24.22
2019-05-28T17:37:31.733Z,24.17
2019-05-28T17:38:31.719Z,24.12
2019-05-28T17:39:31.752Z,24.17
2019-05-28T17:40:47.127Z,24.12
2019-05-28T17:41:54.803Z,24.12
2019-05-28T17:42:54.795Z,24.12
2019-05-28T17:43:54.790Z,24.08
2019-05-28T17:44:54.832Z,24.08
2019-05-28T17:45:54.789Z,24.12
2019-05-28T17:46:54.799Z,24.04
2019-05-28T17:48:54.732Z,24.01
2019-05-28T17:49:54.746Z,24.10
2019-05-28T17:50:54.703Z,24.07
2019-05-28T17:51:54.724Z,24.04
2019-05-28T17:52:54.687Z,24.05
2019-05-28T17:53:54.676Z,24.02
2019-05-28T17:55:54.660Z,24.02
2019-05-28T17:56:54.644Z,24.04
2019-05-28T17:57:54.651Z,24.02
2019-05-28T17:58:54.640Z,23.96
2019-05-28T17:59:54.611Z,23.96
2019-05-28T18:00:54.600Z,23.96
2019-05-28T18:01:54.600Z,23.99
2019-05-28T18:02:54.578Z,23.89
2019-05-28T18:03:54.585Z,23.94
2019-05-28T18:04:54.568Z,23.93
2019-05-28T18:06:54.533Z,23.89
2019-05-28T18:08:54.517Z,23.93
2019-05-28T18:09:54.526Z,23.86
2019-05-28T18:11:03.741Z,23.85
2019-05-28T18:12:16.613Z,23.91
2019-05-28T18:13:16.597Z,23.86
2019-05-28T18:14:16.584Z,23.88
2019-05-28T18:15:16.567Z,23.85
2019-05-28T18:16:16.564Z,23.93
2019-05-28T18:17:16.614Z,23.86
2019-05-28T18:18:16.589Z,23.86
2019-05-28T18:19:16.539Z,23.82
2019-05-28T18:20:16.529Z,23.84
2019-05-28T18:22:16.509Z,23.82
2019-05-28T18:23:16.513Z,23.81
2019-05-28T18:24:16.536Z,23.76
2019-05-28T18:25:19.922Z,23.78
2019-05-28T18:26:16.482Z,23.82
2019-05-28T18:27:16.481Z,23.76
2019-05-28T18:28:16.460Z,23.75
2019-05-28T18:29:16.505Z,23.76
2019-05-28T18:30:16.417Z,23.74
2019-05-28T18:32:16.393Z,23.75
2019-05-28T18:33:16.372Z,23.63
2019-05-28T18:34:16.368Z,23.66
2019-05-28T18:35:16.363Z,23.60
2019-05-28T18:36:16.440Z,23.66
2019-05-28T18:37:16.339Z,23.61
2019-05-28T18:38:16.322Z,23.56
